PWSweather.com
Personal Weather Stations
Station Observations
NAGEO265NE
Bedzin GrodziecPL 42-506

Bedzin GrodziecPL 42-506

Lat: 50.347, Lon: 19.079

Elevation: 948

Station Type: WH1080

http://www.meteo-grodziec.pl/

High Low Average
Temperature 39.9°F4.4°C 37.2°F2.9°C 38.2°F3.4°C
Dew Point 37.0°F2.8°C 35.2°F1.8°C 36.3°F2.4°C
Winds 4.0 mph 6.4 kmh 1.0 mph 1.6 kmh 3.0 mph WSW4.8 kmh WSW
Wind Gusts 16.0 mph25.7 kmh 5.0 mph8.0 kmh 10.0 mph16.1 kmh
Humidity 96% 87% 93%
Pressure 30.27 in1025.1 mb 30.22 in1023.4 mb -
Precipitation 0.17 in4.3 mm - -
Hour Temp Dew Point Humidity Winds Wind Gusts Pressure Precip Precip Rate Daily Precip Total
12:00 AM 37.8°F3.2°C 36.7°F2.6°C 96% 2.0 mph WSW3.2 kmh WSW 6.0 mph9.7 kmh 30.25 in1024.4 mb 0.05 in1.3 mm 0.00 in0.0 mm 0.05 in1.3 mm
12:05 AM 37.8°F3.2°C 36.7°F2.6°C 96% 2.0 mph WSW3.2 kmh WSW 6.0 mph9.7 kmh 30.25 in1024.4 mb 0.05 in1.3 mm 0.00 in0.0 mm 0.05 in1.3 mm
12:10 AM 37.9°F3.3°C 36.9°F2.7°C 96% 2.0 mph WSW3.2 kmh WSW 6.0 mph9.7 kmh 30.25 in1024.4 mb 0.05 in1.3 mm 0.00 in0.0 mm 0.01 in0.3 mm
12:15 AM 37.9°F3.3°C 36.9°F2.7°C 96% 2.0 mph WSW3.2 kmh WSW 10.0 mph16.1 kmh 30.25 in1024.4 mb 0.05 in1.3 mm 0.00 in0.0 mm 0.02 in0.5 mm
12:20 AM 37.9°F3.3°C 36.9°F2.7°C 96% 3.0 mph WSW4.8 kmh WSW 10.0 mph16.1 kmh 30.25 in1024.4 mb 0.05 in1.3 mm 0.00 in0.0 mm 0.02 in0.5 mm
12:25 AM 37.9°F3.3°C 36.9°F2.7°C 96% 2.0 mph WSW3.2 kmh WSW 9.0 mph14.5 kmh 30.25 in1024.4 mb 0.04 in1.0 mm 0.00 in0.0 mm 0.02 in0.5 mm
12:30 AM 37.8°F3.2°C 36.7°F2.6°C 96% 2.0 mph WSW3.2 kmh WSW 7.0 mph11.3 kmh 30.25 in1024.4 mb 0.05 in1.3 mm 0.12 in3.0 mm 0.02 in0.5 mm
12:35 AM 37.9°F3.3°C 36.9°F2.7°C 96% 2.0 mph WSW3.2 kmh WSW 7.0 mph11.3 kmh 30.25 in1024.4 mb 0.04 in1.0 mm 0.00 in0.0 mm 0.02 in0.5 mm
12:40 AM 37.9°F3.3°C 36.9°F2.7°C 96% 2.0 mph WSW3.2 kmh WSW 7.0 mph11.3 kmh 30.25 in1024.4 mb 0.05 in1.3 mm 0.12 in3.0 mm 0.03 in0.8 mm
12:45 AM 37.9°F3.3°C 36.9°F2.7°C 96% 2.0 mph W3.2 kmh W 7.0 mph11.3 kmh 30.25 in1024.4 mb 0.04 in1.0 mm 0.00 in0.0 mm 0.03 in0.8 mm
12:50 AM 37.9°F3.3°C 37.0°F2.8°C 96% 2.0 mph W3.2 kmh W 7.0 mph11.3 kmh 30.25 in1024.4 mb 0.05 in1.3 mm 0.12 in3.0 mm 0.04 in1.0 mm
12:55 AM 37.9°F3.3°C 37.0°F2.8°C 96% 2.0 mph WSW3.2 kmh WSW 9.0 mph14.5 kmh 30.25 in1024.4 mb 0.04 in1.0 mm 0.00 in0.0 mm 0.04 in1.0 mm
01:00 AM 37.9°F3.3°C 36.9°F2.7°C 96% 2.0 mph WSW3.2 kmh WSW 9.0 mph14.5 kmh 30.25 in1024.4 mb 0.04 in1.0 mm 0.00 in0.0 mm 0.04 in1.0 mm
01:05 AM 37.9°F3.3°C 36.9°F2.7°C 96% 2.0 mph WSW3.2 kmh WSW 7.0 mph11.3 kmh 30.25 in1024.4 mb 0.05 in1.3 mm 0.12 in3.0 mm 0.05 in1.3 mm
01:10 AM 37.9°F3.3°C 36.7°F2.6°C 95% 2.0 mph WSW3.2 kmh WSW 6.0 mph9.7 kmh 30.25 in1024.4 mb 0.04 in1.0 mm 0.00 in0.0 mm 0.05 in1.3 mm
01:15 AM 37.9°F3.3°C 36.7°F2.6°C 95% 2.0 mph W3.2 kmh W 9.0 mph14.5 kmh 30.25 in1024.4 mb 0.04 in1.0 mm 0.00 in0.0 mm 0.06 in1.5 mm
01:20 AM 37.9°F3.3°C 36.7°F2.6°C 95% 2.0 mph W3.2 kmh W 9.0 mph14.5 kmh 30.25 in1024.4 mb 0.04 in1.0 mm 0.00 in0.0 mm 0.06 in1.5 mm
01:25 AM 37.8°F3.2°C 36.5°F2.5°C 95% 2.0 mph W3.2 kmh W 10.0 mph16.1 kmh 30.25 in1024.4 mb 0.04 in1.0 mm 0.00 in0.0 mm 0.06 in1.5 mm
01:30 AM 37.8°F3.2°C 36.5°F2.5°C 95% 2.0 mph WSW3.2 kmh WSW 12.0 mph19.3 kmh 30.25 in1024.4 mb 0.04 in1.0 mm 0.00 in0.0 mm 0.06 in1.5 mm
01:35 AM 37.8°F3.2°C 36.3°F2.4°C 95% 3.0 mph WSW4.8 kmh WSW 12.0 mph19.3 kmh 30.25 in1024.4 mb 0.04 in1.0 mm 0.00 in0.0 mm 0.06 in1.5 mm
01:40 AM 37.8°F3.2°C 36.3°F2.4°C 95% 3.0 mph WSW4.8 kmh WSW 10.0 mph16.1 kmh 30.25 in1024.4 mb 0.03 in0.8 mm 0.00 in0.0 mm 0.06 in1.5 mm
01:45 AM 37.8°F3.2°C 36.7°F2.6°C 96% 3.0 mph WSW4.8 kmh WSW 11.0 mph17.7 kmh 30.25 in1024.4 mb 0.04 in1.0 mm 0.12 in3.0 mm 0.07 in1.8 mm
01:50 AM 37.6°F3.1°C 36.5°F2.5°C 96% 2.0 mph WSW3.2 kmh WSW 12.0 mph19.3 kmh 30.25 in1024.4 mb 0.03 in0.8 mm 0.00 in0.0 mm 0.07 in1.8 mm
01:55 AM 37.6°F3.1°C 36.5°F2.5°C 96% 2.0 mph WSW3.2 kmh WSW 12.0 mph19.3 kmh 30.25 in1024.4 mb 0.03 in0.8 mm 0.00 in0.0 mm 0.07 in1.8 mm
02:00 AM 37.6°F3.1°C 36.5°F2.5°C 96% 2.0 mph WSW3.2 kmh WSW 8.0 mph12.9 kmh 30.25 in1024.4 mb 0.03 in0.8 mm 0.00 in0.0 mm 0.07 in1.8 mm
02:05 AM 37.6°F3.1°C 36.5°F2.5°C 96% 1.0 mph WSW1.6 kmh WSW 8.0 mph12.9 kmh 30.25 in1024.4 mb 0.02 in0.5 mm 0.00 in0.0 mm 0.07 in1.8 mm
02:10 AM 37.4°F3.0°C 36.3°F2.4°C 96% 2.0 mph WSW3.2 kmh WSW 10.0 mph16.1 kmh 30.25 in1024.4 mb 0.02 in0.5 mm 0.00 in0.0 mm 0.07 in1.8 mm
02:15 AM 37.2°F2.9°C 36.3°F2.4°C 96% 2.0 mph WSW3.2 kmh WSW 10.0 mph16.1 kmh 30.25 in1024.4 mb 0.02 in0.5 mm 0.00 in0.0 mm 0.08 in2.0 mm
02:20 AM 37.2°F2.9°C 36.3°F2.4°C 96% 3.0 mph WSW4.8 kmh WSW 9.0 mph14.5 kmh 30.25 in1024.4 mb 0.02 in0.5 mm 0.00 in0.0 mm 0.08 in2.0 mm
02:25 AM 37.2°F2.9°C 36.3°F2.4°C 96% 2.0 mph WSW3.2 kmh WSW 8.0 mph12.9 kmh 30.25 in1024.4 mb 0.02 in0.5 mm 0.00 in0.0 mm 0.08 in2.0 mm
02:30 AM 37.2°F2.9°C 36.3°F2.4°C 96% 2.0 mph WSW3.2 kmh WSW 8.0 mph12.9 kmh 30.25 in1024.4 mb 0.02 in0.5 mm 0.00 in0.0 mm 0.08 in2.0 mm
02:35 AM 37.2°F2.9°C 36.3°F2.4°C 96% 2.0 mph WSW3.2 kmh WSW 7.0 mph11.3 kmh 30.25 in1024.4 mb 0.02 in0.5 mm 0.00 in0.0 mm 0.08 in2.0 mm
02:40 AM 37.2°F2.9°C 36.3°F2.4°C 96% 2.0 mph WSW3.2 kmh WSW 7.0 mph11.3 kmh 30.25 in1024.4 mb 0.02 in0.5 mm 0.00 in0.0 mm 0.08 in2.0 mm
02:45 AM 37.2°F2.9°C 36.3°F2.4°C 96% 1.0 mph WSW1.6 kmh WSW 6.0 mph9.7 kmh 30.25 in1024.4 mb 0.01 in0.3 mm 0.00 in0.0 mm 0.08 in2.0 mm
02:50 AM 37.2°F2.9°C 36.3°F2.4°C 96% 1.0 mph WSW1.6 kmh WSW 7.0 mph11.3 kmh 30.25 in1024.4 mb 0.01 in0.3 mm 0.00 in0.0 mm 0.08 in2.0 mm
02:55 AM 37.2°F2.9°C 36.3°F2.4°C 96% 2.0 mph WSW3.2 kmh WSW 15.0 mph24.1 kmh 30.25 in1024.4 mb 0.01 in0.3 mm 0.00 in0.0 mm 0.08 in2.0 mm
03:00 AM 37.4°F3.0°C 36.3°F2.4°C 96% 3.0 mph WSW4.8 kmh WSW 15.0 mph24.1 kmh 30.25 in1024.4 mb 0.01 in0.3 mm 0.00 in0.0 mm 0.08 in2.0 mm
03:05 AM 37.4°F3.0°C 36.3°F2.4°C 96% 2.0 mph WSW3.2 kmh WSW 12.0 mph19.3 kmh 30.25 in1024.4 mb 0.01 in0.3 mm 0.00 in0.0 mm 0.08 in2.0 mm
03:10 AM 37.6°F3.1°C 36.5°F2.5°C 96% 2.0 mph WSW3.2 kmh WSW 8.0 mph12.9 kmh 30.25 in1024.4 mb 0.01 in0.3 mm 0.00 in0.0 mm 0.08 in2.0 mm
03:15 AM 37.6°F3.1°C 36.5°F2.5°C 96% 2.0 mph W3.2 kmh W 8.0 mph12.9 kmh 30.25 in1024.4 mb 0.00 in0.0 mm 0.00 in0.0 mm 0.08 in2.0 mm
03:20 AM 37.6°F3.1°C 36.5°F2.5°C 96% 2.0 mph W3.2 kmh W 7.0 mph11.3 kmh 30.25 in1024.4 mb 0.00 in0.0 mm 0.00 in0.0 mm 0.08 in2.0 mm
03:25 AM 37.8°F3.2°C 36.7°F2.6°C 96% 2.0 mph WSW3.2 kmh WSW 7.0 mph11.3 kmh 30.25 in1024.4 mb 0.00 in0.0 mm 0.00 in0.0 mm 0.08 in2.0 mm
03:30 AM 37.8°F3.2°C 36.3°F2.4°C 95% 2.0 mph WSW3.2 kmh WSW 7.0 mph11.3 kmh 30.25 in1024.4 mb 0.00 in0.0 mm 0.00 in0.0 mm 0.08 in2.0 mm
03:35 AM 37.8°F3.2°C 36.5°F2.5°C 95% 1.0 mph WSW1.6 kmh WSW 7.0 mph11.3 kmh 30.25 in1024.4 mb 0.00 in0.0 mm 0.00 in0.0 mm 0.08 in2.0 mm
03:40 AM 37.8°F3.2°C 36.5°F2.5°C 95% 1.0 mph W1.6 kmh W 5.0 mph8.0 kmh 30.25 in1024.4 mb 0.00 in0.0 mm 0.00 in0.0 mm 0.08 in2.0 mm
03:45 AM 37.8°F3.2°C 36.5°F2.5°C 95% 2.0 mph W3.2 kmh W 8.0 mph12.9 kmh 30.25 in1024.4 mb 0.01 in0.3 mm 0.12 in3.0 mm 0.09 in2.3 mm
03:50 AM 37.9°F3.3°C 36.7°F2.6°C 95% 2.0 mph WSW3.2 kmh WSW 8.0 mph12.9 kmh 30.25 in1024.4 mb 0.01 in0.3 mm 0.00 in0.0 mm 0.09 in2.3 mm
03:55 AM 37.8°F3.2°C 36.5°F2.5°C 95% 2.0 mph WSW3.2 kmh WSW 6.0 mph9.7 kmh 30.25 in1024.4 mb 0.01 in0.3 mm 0.00 in0.0 mm 0.09 in2.3 mm
04:00 AM 37.8°F3.2°C 36.5°F2.5°C 95% 2.0 mph WSW3.2 kmh WSW 5.0 mph8.0 kmh 30.25 in1024.4 mb 0.01 in0.3 mm 0.00 in0.0 mm 0.09 in2.3 mm
04:05 AM 37.8°F3.2°C 36.5°F2.5°C 95% 1.0 mph WSW1.6 kmh WSW 6.0 mph9.7 kmh 30.25 in1024.4 mb 0.01 in0.3 mm 0.00 in0.0 mm 0.09 in2.3 mm
04:10 AM 37.8°F3.2°C 36.5°F2.5°C 95% 1.0 mph WSW1.6 kmh WSW 9.0 mph14.5 kmh 30.25 in1024.4 mb 0.01 in0.3 mm 0.00 in0.0 mm 0.09 in2.3 mm
04:15 AM 37.9°F3.3°C 36.7°F2.6°C 95% 2.0 mph WSW3.2 kmh WSW 9.0 mph14.5 kmh 30.25 in1024.4 mb 0.01 in0.3 mm 0.00 in0.0 mm 0.09 in2.3 mm
04:20 AM 37.9°F3.3°C 36.7°F2.6°C 95% 2.0 mph WSW3.2 kmh WSW 7.0 mph11.3 kmh 30.25 in1024.4 mb 0.01 in0.3 mm 0.00 in0.0 mm 0.09 in2.3 mm
04:25 AM 37.9°F3.3°C 36.7°F2.6°C 95% 2.0 mph WSW3.2 kmh WSW 7.0 mph11.3 kmh 30.25 in1024.4 mb 0.01 in0.3 mm 0.00 in0.0 mm 0.09 in2.3 mm
04:30 AM 37.9°F3.3°C 36.7°F2.6°C 95% 2.0 mph W3.2 kmh W 9.0 mph14.5 kmh 30.25 in1024.4 mb 0.01 in0.3 mm 0.00 in0.0 mm 0.09 in2.3 mm
04:35 AM 37.9°F3.3°C 36.7°F2.6°C 95% 2.0 mph W3.2 kmh W 9.0 mph14.5 kmh 30.24 in1024.0 mb 0.01 in0.3 mm 0.00 in0.0 mm 0.09 in2.3 mm
04:40 AM 37.8°F3.2°C 36.5°F2.5°C 95% 1.0 mph WSW1.6 kmh WSW 7.0 mph11.3 kmh 30.25 in1024.4 mb 0.01 in0.3 mm 0.00 in0.0 mm 0.09 in2.3 mm
04:45 AM 37.8°F3.2°C 36.3°F2.4°C 95% 2.0 mph WSW3.2 kmh WSW 10.0 mph16.1 kmh 30.25 in1024.4 mb 0.00 in0.0 mm 0.00 in0.0 mm 0.09 in2.3 mm
04:50 AM 37.8°F3.2°C 36.3°F2.4°C 95% 2.0 mph WSW3.2 kmh WSW 10.0 mph16.1 kmh 30.24 in1024.0 mb 0.01 in0.3 mm 0.12 in3.0 mm 0.09 in2.3 mm
04:55 AM 37.8°F3.2°C 36.3°F2.4°C 95% 2.0 mph WSW3.2 kmh WSW 8.0 mph12.9 kmh 30.25 in1024.4 mb 0.01 in0.3 mm 0.00 in0.0 mm 0.09 in2.3 mm
05:00 AM 37.6°F3.1°C 36.3°F2.4°C 95% 2.0 mph WSW3.2 kmh WSW 7.0 mph11.3 kmh 30.25 in1024.4 mb 0.01 in0.3 mm 0.00 in0.0 mm 0.09 in2.3 mm
05:05 AM 37.6°F3.1°C 36.3°F2.4°C 95% 1.0 mph WSW1.6 kmh WSW 7.0 mph11.3 kmh 30.25 in1024.4 mb 0.01 in0.3 mm 0.00 in0.0 mm 0.09 in2.3 mm
05:10 AM 37.6°F3.1°C 36.3°F2.4°C 95% 1.0 mph WSW1.6 kmh WSW 6.0 mph9.7 kmh 30.25 in1024.4 mb 0.01 in0.3 mm 0.00 in0.0 mm 0.09 in2.3 mm
05:15 AM 37.6°F3.1°C 36.1°F2.3°C 95% 1.0 mph WSW1.6 kmh WSW 9.0 mph14.5 kmh 30.25 in1024.4 mb 0.01 in0.3 mm 0.00 in0.0 mm 0.09 in2.3 mm
05:20 AM 37.6°F3.1°C 36.5°F2.5°C 96% 2.0 mph WSW3.2 kmh WSW 9.0 mph14.5 kmh 30.25 in1024.4 mb 0.02 in0.5 mm 0.12 in3.0 mm 0.10 in2.5 mm
05:25 AM 37.6°F3.1°C 36.5°F2.5°C 96% 2.0 mph WSW3.2 kmh WSW 7.0 mph11.3 kmh 30.25 in1024.4 mb 0.02 in0.5 mm 0.00 in0.0 mm 0.10 in2.5 mm
05:30 AM 37.6°F3.1°C 36.5°F2.5°C 96% 2.0 mph WSW3.2 kmh WSW 8.0 mph12.9 kmh 30.25 in1024.4 mb 0.02 in0.5 mm 0.00 in0.0 mm 0.10 in2.5 mm
05:35 AM 37.6°F3.1°C 36.5°F2.5°C 96% 2.0 mph WSW3.2 kmh WSW 8.0 mph12.9 kmh 30.25 in1024.4 mb 0.02 in0.5 mm 0.00 in0.0 mm 0.10 in2.5 mm
05:40 AM 37.6°F3.1°C 36.5°F2.5°C 96% 2.0 mph WSW3.2 kmh WSW 8.0 mph12.9 kmh 30.25 in1024.4 mb 0.02 in0.5 mm 0.00 in0.0 mm 0.10 in2.5 mm
05:45 AM 37.6°F3.1°C 36.5°F2.5°C 96% 2.0 mph WSW3.2 kmh WSW 8.0 mph12.9 kmh 30.25 in1024.4 mb 0.02 in0.5 mm 0.00 in0.0 mm 0.10 in2.5 mm
05:50 AM 37.6°F3.1°C 36.5°F2.5°C 96% 2.0 mph WSW3.2 kmh WSW 7.0 mph11.3 kmh 30.25 in1024.4 mb 0.01 in0.3 mm 0.00 in0.0 mm 0.10 in2.5 mm
05:55 AM 37.6°F3.1°C 36.5°F2.5°C 96% 2.0 mph WSW3.2 kmh WSW 6.0 mph9.7 kmh 30.25 in1024.4 mb 0.01 in0.3 mm 0.00 in0.0 mm 0.10 in2.5 mm
06:00 AM 37.8°F3.2°C 36.7°F2.6°C 96% 1.0 mph WSW1.6 kmh WSW 7.0 mph11.3 kmh 30.25 in1024.4 mb 0.01 in0.3 mm 0.00 in0.0 mm 0.10 in2.5 mm
06:05 AM 37.8°F3.2°C 36.7°F2.6°C 96% 2.0 mph WSW3.2 kmh WSW 7.0 mph11.3 kmh 30.25 in1024.4 mb 0.01 in0.3 mm 0.00 in0.0 mm 0.10 in2.5 mm
06:10 AM 37.8°F3.2°C 36.7°F2.6°C 96% 3.0 mph WSW4.8 kmh WSW 9.0 mph14.5 kmh 30.25 in1024.4 mb 0.01 in0.3 mm 0.00 in0.0 mm 0.10 in2.5 mm
06:15 AM 37.8°F3.2°C 36.5°F2.5°C 95% 2.0 mph WSW3.2 kmh WSW 9.0 mph14.5 kmh 30.25 in1024.4 mb 0.01 in0.3 mm 0.00 in0.0 mm 0.10 in2.5 mm
06:20 AM 37.9°F3.3°C 36.7°F2.6°C 95% 2.0 mph WSW3.2 kmh WSW 9.0 mph14.5 kmh 30.25 in1024.4 mb 0.00 in0.0 mm 0.00 in0.0 mm 0.10 in2.5 mm
06:25 AM 37.9°F3.3°C 36.7°F2.6°C 95% 2.0 mph WSW3.2 kmh WSW 9.0 mph14.5 kmh 30.25 in1024.4 mb 0.00 in0.0 mm 0.00 in0.0 mm 0.10 in2.5 mm
06:30 AM 37.9°F3.3°C 36.7°F2.6°C 95% 1.0 mph WSW1.6 kmh WSW 8.0 mph12.9 kmh 30.25 in1024.4 mb 0.00 in0.0 mm 0.00 in0.0 mm 0.10 in2.5 mm
06:35 AM 37.9°F3.3°C 36.7°F2.6°C 95% 2.0 mph WSW3.2 kmh WSW 8.0 mph12.9 kmh 30.25 in1024.4 mb 0.00 in0.0 mm 0.00 in0.0 mm 0.10 in2.5 mm
06:40 AM 37.9°F3.3°C 36.7°F2.6°C 95% 2.0 mph WSW3.2 kmh WSW 9.0 mph14.5 kmh 30.25 in1024.4 mb 0.00 in0.0 mm 0.00 in0.0 mm 0.10 in2.5 mm
06:45 AM 37.9°F3.3°C 36.7°F2.6°C 95% 2.0 mph WSW3.2 kmh WSW 9.0 mph14.5 kmh 30.25 in1024.4 mb 0.00 in0.0 mm 0.00 in0.0 mm 0.10 in2.5 mm
06:50 AM 38.1°F3.4°C 36.9°F2.7°C 95% 2.0 mph WSW3.2 kmh WSW 9.0 mph14.5 kmh 30.25 in1024.4 mb 0.00 in0.0 mm 0.00 in0.0 mm 0.10 in2.5 mm
06:55 AM 38.1°F3.4°C 36.9°F2.7°C 95% 2.0 mph W3.2 kmh W 8.0 mph12.9 kmh 30.25 in1024.4 mb 0.00 in0.0 mm 0.00 in0.0 mm 0.10 in2.5 mm
07:00 AM 38.1°F3.4°C 36.9°F2.7°C 95% 1.0 mph W1.6 kmh W 5.0 mph8.0 kmh 30.25 in1024.4 mb 0.00 in0.0 mm 0.00 in0.0 mm 0.10 in2.5 mm
07:05 AM 38.1°F3.4°C 36.9°F2.7°C 95% 1.0 mph W1.6 kmh W 6.0 mph9.7 kmh 30.25 in1024.4 mb 0.00 in0.0 mm 0.00 in0.0 mm 0.10 in2.5 mm
07:10 AM 37.9°F3.3°C 36.7°F2.6°C 95% 1.0 mph WSW1.6 kmh WSW 6.0 mph9.7 kmh 30.25 in1024.4 mb 0.00 in0.0 mm 0.00 in0.0 mm 0.10 in2.5 mm
07:15 AM 37.9°F3.3°C 36.7°F2.6°C 95% 1.0 mph WSW1.6 kmh WSW 6.0 mph9.7 kmh 30.25 in1024.4 mb 0.00 in0.0 mm 0.00 in0.0 mm 0.10 in2.5 mm
07:20 AM 37.9°F3.3°C 36.7°F2.6°C 95% 1.0 mph WSW1.6 kmh WSW 6.0 mph9.7 kmh 30.25 in1024.4 mb 0.00 in0.0 mm 0.00 in0.0 mm 0.10 in2.5 mm
07:25 AM 37.9°F3.3°C 36.7°F2.6°C 95% 1.0 mph WSW1.6 kmh WSW 8.0 mph12.9 kmh 30.25 in1024.4 mb 0.00 in0.0 mm 0.00 in0.0 mm 0.10 in2.5 mm
07:30 AM 37.9°F3.3°C 36.7°F2.6°C 95% 1.0 mph WSW1.6 kmh WSW 8.0 mph12.9 kmh 30.25 in1024.4 mb 0.00 in0.0 mm 0.00 in0.0 mm 0.10 in2.5 mm
07:35 AM 38.1°F3.4°C 36.9°F2.7°C 95% 2.0 mph WSW3.2 kmh WSW 6.0 mph9.7 kmh 30.25 in1024.4 mb 0.00 in0.0 mm 0.00 in0.0 mm 0.10 in2.5 mm
07:40 AM 38.1°F3.4°C 36.9°F2.7°C 95% 2.0 mph WSW3.2 kmh WSW 6.0 mph9.7 kmh 30.26 in1024.7 mb 0.00 in0.0 mm 0.00 in0.0 mm 0.10 in2.5 mm
07:45 AM 38.3°F3.5°C 36.7°F2.6°C 94% 2.0 mph W3.2 kmh W 9.0 mph14.5 kmh 30.26 in1024.7 mb 0.00 in0.0 mm 0.00 in0.0 mm 0.10 in2.5 mm
07:50 AM 38.5°F3.6°C 36.9°F2.7°C 94% 2.0 mph W3.2 kmh W 10.0 mph16.1 kmh 30.26 in1024.7 mb 0.00 in0.0 mm 0.00 in0.0 mm 0.10 in2.5 mm
07:55 AM 38.5°F3.6°C 36.9°F2.7°C 94% 3.0 mph WSW4.8 kmh WSW 10.0 mph16.1 kmh 30.26 in1024.7 mb 0.00 in0.0 mm 0.00 in0.0 mm 0.10 in2.5 mm
08:00 AM 38.5°F3.6°C 36.7°F2.6°C 93% 2.0 mph WSW3.2 kmh WSW 8.0 mph12.9 kmh 30.26 in1024.7 mb 0.00 in0.0 mm 0.00 in0.0 mm 0.10 in2.5 mm
08:05 AM 38.7°F3.7°C 36.7°F2.6°C 93% 2.0 mph WSW3.2 kmh WSW 9.0 mph14.5 kmh 30.26 in1024.7 mb 0.00 in0.0 mm 0.00 in0.0 mm 0.10 in2.5 mm
08:10 AM 38.7°F3.7°C 36.7°F2.6°C 93% 2.0 mph WSW3.2 kmh WSW 9.0 mph14.5 kmh 30.26 in1024.7 mb 0.00 in0.0 mm 0.00 in0.0 mm 0.10 in2.5 mm
08:15 AM 38.7°F3.7°C 36.7°F2.6°C 93% 2.0 mph WSW3.2 kmh WSW 12.0 mph19.3 kmh 30.26 in1024.7 mb 0.00 in0.0 mm 0.00 in0.0 mm 0.10 in2.5 mm
08:20 AM 38.5°F3.6°C 36.7°F2.6°C 93% 2.0 mph WSW3.2 kmh WSW 12.0 mph19.3 kmh 30.26 in1024.7 mb 0.00 in0.0 mm 0.00 in0.0 mm 0.10 in2.5 mm
08:25 AM 38.5°F3.6°C 36.7°F2.6°C 93% 2.0 mph WSW3.2 kmh WSW 7.0 mph11.3 kmh 30.26 in1024.7 mb 0.00 in0.0 mm 0.00 in0.0 mm 0.10 in2.5 mm
08:30 AM 38.5°F3.6°C 36.7°F2.6°C 93% 2.0 mph WSW3.2 kmh WSW 9.0 mph14.5 kmh 30.26 in1024.7 mb 0.00 in0.0 mm 0.00 in0.0 mm 0.10 in2.5 mm
08:35 AM 38.5°F3.6°C 36.7°F2.6°C 93% 3.0 mph WSW4.8 kmh WSW 9.0 mph14.5 kmh 30.26 in1024.7 mb 0.00 in0.0 mm 0.00 in0.0 mm 0.10 in2.5 mm
08:40 AM 38.5°F3.6°C 36.7°F2.6°C 93% 3.0 mph WSW4.8 kmh WSW 8.0 mph12.9 kmh 30.26 in1024.7 mb 0.00 in0.0 mm 0.00 in0.0 mm 0.10 in2.5 mm
08:45 AM 38.5°F3.6°C 36.7°F2.6°C 93% 3.0 mph WSW4.8 kmh WSW 9.0 mph14.5 kmh 30.26 in1024.7 mb 0.00 in0.0 mm 0.00 in0.0 mm 0.10 in2.5 mm
08:50 AM 38.5°F3.6°C 36.7°F2.6°C 93% 2.0 mph WSW3.2 kmh WSW 9.0 mph14.5 kmh 30.26 in1024.7 mb 0.00 in0.0 mm 0.00 in0.0 mm 0.10 in2.5 mm
08:55 AM 38.5°F3.6°C 36.7°F2.6°C 93% 2.0 mph WSW3.2 kmh WSW 10.0 mph16.1 kmh 30.26 in1024.7 mb 0.00 in0.0 mm 0.00 in0.0 mm 0.10 in2.5 mm
09:00 AM 38.7°F3.7°C 36.7°F2.6°C 93% 3.0 mph WSW4.8 kmh WSW 10.0 mph16.1 kmh 30.26 in1024.7 mb 0.00 in0.0 mm 0.00 in0.0 mm 0.10 in2.5 mm
09:05 AM 38.7°F3.7°C 36.7°F2.6°C 93% 2.0 mph WSW3.2 kmh WSW 10.0 mph16.1 kmh 30.26 in1024.7 mb 0.00 in0.0 mm 0.00 in0.0 mm 0.10 in2.5 mm
09:10 AM 38.7°F3.7°C 36.7°F2.6°C 93% 3.0 mph WSW4.8 kmh WSW 10.0 mph16.1 kmh 30.26 in1024.7 mb 0.00 in0.0 mm 0.00 in0.0 mm 0.10 in2.5 mm
09:15 AM 38.7°F3.7°C 36.7°F2.6°C 93% 3.0 mph WSW4.8 kmh WSW 12.0 mph19.3 kmh 30.26 in1024.7 mb 0.01 in0.3 mm 0.12 in3.0 mm 0.11 in2.8 mm
09:20 AM 38.7°F3.7°C 36.7°F2.6°C 93% 2.0 mph WSW3.2 kmh WSW 12.0 mph19.3 kmh 30.26 in1024.7 mb 0.01 in0.3 mm 0.00 in0.0 mm 0.11 in2.8 mm
09:25 AM 38.7°F3.7°C 36.9°F2.7°C 93% 2.0 mph WSW3.2 kmh WSW 8.0 mph12.9 kmh 30.26 in1024.7 mb 0.01 in0.3 mm 0.00 in0.0 mm 0.11 in2.8 mm
09:30 AM 38.7°F3.7°C 36.5°F2.5°C 92% 3.0 mph WSW4.8 kmh WSW 10.0 mph16.1 kmh 30.26 in1024.7 mb 0.01 in0.3 mm 0.00 in0.0 mm 0.11 in2.8 mm
09:35 AM 38.8°F3.8°C 36.7°F2.6°C 92% 3.0 mph WSW4.8 kmh WSW 10.0 mph16.1 kmh 30.26 in1024.7 mb 0.01 in0.3 mm 0.00 in0.0 mm 0.11 in2.8 mm
09:40 AM 38.8°F3.8°C 36.7°F2.6°C 92% 3.0 mph WSW4.8 kmh WSW 8.0 mph12.9 kmh 30.26 in1024.7 mb 0.01 in0.3 mm 0.00 in0.0 mm 0.11 in2.8 mm
09:45 AM 38.8°F3.8°C 36.9°F2.7°C 92% 3.0 mph WSW4.8 kmh WSW 11.0 mph17.7 kmh 30.27 in1025.1 mb 0.01 in0.3 mm 0.00 in0.0 mm 0.11 in2.8 mm
09:50 AM 38.8°F3.8°C 36.9°F2.7°C 92% 3.0 mph WSW4.8 kmh WSW 12.0 mph19.3 kmh 30.27 in1025.1 mb 0.01 in0.3 mm 0.00 in0.0 mm 0.11 in2.8 mm
09:55 AM 39.0°F3.9°C 36.7°F2.6°C 91% 4.0 mph WSW6.4 kmh WSW 12.0 mph19.3 kmh 30.27 in1025.1 mb 0.01 in0.3 mm 0.00 in0.0 mm 0.11 in2.8 mm
10:00 AM 39.0°F3.9°C 36.7°F2.6°C 91% 3.0 mph WSW4.8 kmh WSW 12.0 mph19.3 kmh 30.26 in1024.7 mb 0.01 in0.3 mm 0.00 in0.0 mm 0.11 in2.8 mm
10:05 AM 39.0°F3.9°C 36.7°F2.6°C 91% 3.0 mph WSW4.8 kmh WSW 12.0 mph19.3 kmh 30.27 in1025.1 mb 0.01 in0.3 mm 0.00 in0.0 mm 0.11 in2.8 mm
10:10 AM 39.0°F3.9°C 36.7°F2.6°C 91% 3.0 mph WSW4.8 kmh WSW 11.0 mph17.7 kmh 30.27 in1025.1 mb 0.01 in0.3 mm 0.00 in0.0 mm 0.11 in2.8 mm
10:15 AM 39.0°F3.9°C 36.7°F2.6°C 91% 3.0 mph WSW4.8 kmh WSW 14.0 mph22.5 kmh 30.27 in1025.1 mb 0.00 in0.0 mm 0.00 in0.0 mm 0.11 in2.8 mm
10:20 AM 39.0°F3.9°C 36.7°F2.6°C 91% 3.0 mph WSW4.8 kmh WSW 14.0 mph22.5 kmh 30.27 in1025.1 mb 0.00 in0.0 mm 0.00 in0.0 mm 0.11 in2.8 mm
10:25 AM 39.0°F3.9°C 36.7°F2.6°C 91% 4.0 mph WSW6.4 kmh WSW 12.0 mph19.3 kmh 30.27 in1025.1 mb 0.00 in0.0 mm 0.00 in0.0 mm 0.11 in2.8 mm
10:30 AM 39.0°F3.9°C 36.7°F2.6°C 91% 3.0 mph WSW4.8 kmh WSW 12.0 mph19.3 kmh 30.26 in1024.7 mb 0.00 in0.0 mm 0.00 in0.0 mm 0.11 in2.8 mm
10:35 AM 38.8°F3.8°C 36.9°F2.7°C 92% 3.0 mph WSW4.8 kmh WSW 12.0 mph19.3 kmh 30.26 in1024.7 mb 0.00 in0.0 mm 0.00 in0.0 mm 0.11 in2.8 mm
10:40 AM 38.8°F3.8°C 36.9°F2.7°C 92% 3.0 mph WSW4.8 kmh WSW 12.0 mph19.3 kmh 30.26 in1024.7 mb 0.00 in0.0 mm 0.00 in0.0 mm 0.11 in2.8 mm
10:45 AM 38.8°F3.8°C 36.9°F2.7°C 92% 3.0 mph WSW4.8 kmh WSW 12.0 mph19.3 kmh 30.26 in1024.7 mb 0.00 in0.0 mm 0.00 in0.0 mm 0.11 in2.8 mm
10:50 AM 38.8°F3.8°C 36.9°F2.7°C 92% 3.0 mph WSW4.8 kmh WSW 12.0 mph19.3 kmh 30.26 in1024.7 mb 0.00 in0.0 mm 0.00 in0.0 mm 0.11 in2.8 mm
10:55 AM 38.8°F3.8°C 36.7°F2.6°C 92% 4.0 mph WSW6.4 kmh WSW 13.0 mph20.9 kmh 30.26 in1024.7 mb 0.00 in0.0 mm 0.00 in0.0 mm 0.11 in2.8 mm
11:00 AM 38.8°F3.8°C 36.7°F2.6°C 92% 3.0 mph WSW4.8 kmh WSW 13.0 mph20.9 kmh 30.25 in1024.4 mb 0.00 in0.0 mm 0.00 in0.0 mm 0.11 in2.8 mm
11:05 AM 38.7°F3.7°C 36.5°F2.5°C 92% 3.0 mph WSW4.8 kmh WSW 11.0 mph17.7 kmh 30.25 in1024.4 mb 0.00 in0.0 mm 0.00 in0.0 mm 0.11 in2.8 mm
11:10 AM 38.7°F3.7°C 36.5°F2.5°C 92% 3.0 mph WSW4.8 kmh WSW 11.0 mph17.7 kmh 30.25 in1024.4 mb 0.00 in0.0 mm 0.00 in0.0 mm 0.11 in2.8 mm
11:15 AM 38.7°F3.7°C 36.5°F2.5°C 92% 4.0 mph WSW6.4 kmh WSW 12.0 mph19.3 kmh 30.25 in1024.4 mb 0.00 in0.0 mm 0.00 in0.0 mm 0.11 in2.8 mm
11:20 AM 38.7°F3.7°C 36.5°F2.5°C 92% 3.0 mph WSW4.8 kmh WSW 12.0 mph19.3 kmh 30.25 in1024.4 mb 0.00 in0.0 mm 0.00 in0.0 mm 0.11 in2.8 mm
11:25 AM 38.8°F3.8°C 36.7°F2.6°C 92% 2.0 mph WSW3.2 kmh WSW 7.0 mph11.3 kmh 30.25 in1024.4 mb 0.00 in0.0 mm 0.00 in0.0 mm 0.11 in2.8 mm
11:30 AM 38.8°F3.8°C 36.5°F2.5°C 91% 2.0 mph WSW3.2 kmh WSW 7.0 mph11.3 kmh 30.25 in1024.4 mb 0.00 in0.0 mm 0.00 in0.0 mm 0.11 in2.8 mm
11:35 AM 39.0°F3.9°C 36.7°F2.6°C 91% 2.0 mph WSW3.2 kmh WSW 7.0 mph11.3 kmh 30.25 in1024.4 mb 0.00 in0.0 mm 0.00 in0.0 mm 0.11 in2.8 mm
11:40 AM 38.8°F3.8°C 36.5°F2.5°C 91% 3.0 mph WSW4.8 kmh WSW 12.0 mph19.3 kmh 30.24 in1024.0 mb 0.00 in0.0 mm 0.00 in0.0 mm 0.11 in2.8 mm
11:45 AM 38.8°F3.8°C 36.5°F2.5°C 91% 3.0 mph WSW4.8 kmh WSW 12.0 mph19.3 kmh 30.24 in1024.0 mb 0.00 in0.0 mm 0.00 in0.0 mm 0.11 in2.8 mm
11:50 AM 39.0°F3.9°C 36.7°F2.6°C 91% 3.0 mph WSW4.8 kmh WSW 13.0 mph20.9 kmh 30.24 in1024.0 mb 0.00 in0.0 mm 0.00 in0.0 mm 0.11 in2.8 mm
11:55 AM 39.0°F3.9°C 36.7°F2.6°C 91% 4.0 mph WSW6.4 kmh WSW 13.0 mph20.9 kmh 30.24 in1024.0 mb 0.00 in0.0 mm 0.00 in0.0 mm 0.11 in2.8 mm
12:00 PM 38.8°F3.8°C 36.5°F2.5°C 91% 3.0 mph WSW4.8 kmh WSW 9.0 mph14.5 kmh 30.24 in1024.0 mb 0.00 in0.0 mm 0.00 in0.0 mm 0.11 in2.8 mm
12:05 PM 39.0°F3.9°C 36.7°F2.6°C 91% 2.0 mph WSW3.2 kmh WSW 7.0 mph11.3 kmh 30.24 in1024.0 mb 0.00 in0.0 mm 0.00 in0.0 mm 0.11 in2.8 mm
12:10 PM 39.0°F3.9°C 36.3°F2.4°C 90% 2.0 mph WSW3.2 kmh WSW 8.0 mph12.9 kmh 30.24 in1024.0 mb 0.00 in0.0 mm 0.00 in0.0 mm 0.11 in2.8 mm
12:15 PM 39.0°F3.9°C 36.3°F2.4°C 90% 2.0 mph WSW3.2 kmh WSW 8.0 mph12.9 kmh 30.24 in1024.0 mb 0.00 in0.0 mm 0.00 in0.0 mm 0.11 in2.8 mm
12:20 PM 39.0°F3.9°C 36.5°F2.5°C 90% 2.0 mph WSW3.2 kmh WSW 8.0 mph12.9 kmh 30.23 in1023.7 mb 0.00 in0.0 mm 0.00 in0.0 mm 0.11 in2.8 mm
12:25 PM 39.0°F3.9°C 36.5°F2.5°C 90% 3.0 mph WSW4.8 kmh WSW 8.0 mph12.9 kmh 30.24 in1024.0 mb 0.00 in0.0 mm 0.00 in0.0 mm 0.11 in2.8 mm
12:30 PM 39.2°F4.0°C 36.5°F2.5°C 90% 3.0 mph WSW4.8 kmh WSW 9.0 mph14.5 kmh 30.23 in1023.7 mb 0.00 in0.0 mm 0.00 in0.0 mm 0.11 in2.8 mm
12:35 PM 39.4°F4.1°C 36.3°F2.4°C 89% 3.0 mph WSW4.8 kmh WSW 11.0 mph17.7 kmh 30.24 in1024.0 mb 0.00 in0.0 mm 0.00 in0.0 mm 0.11 in2.8 mm
12:40 PM 39.4°F4.1°C 36.5°F2.5°C 89% 3.0 mph WSW4.8 kmh WSW 11.0 mph17.7 kmh 30.24 in1024.0 mb 0.00 in0.0 mm 0.00 in0.0 mm 0.11 in2.8 mm
12:45 PM 39.6°F4.2°C 36.5°F2.5°C 89% 3.0 mph WSW4.8 kmh WSW 10.0 mph16.1 kmh 30.23 in1023.7 mb 0.00 in0.0 mm 0.00 in0.0 mm 0.11 in2.8 mm
12:50 PM 39.6°F4.2°C 36.7°F2.6°C 89% 3.0 mph WSW4.8 kmh WSW 10.0 mph16.1 kmh 30.23 in1023.7 mb 0.00 in0.0 mm 0.00 in0.0 mm 0.11 in2.8 mm
12:55 PM 39.7°F4.3°C 36.5°F2.5°C 88% 3.0 mph WSW4.8 kmh WSW 9.0 mph14.5 kmh 30.23 in1023.7 mb 0.00 in0.0 mm 0.00 in0.0 mm 0.11 in2.8 mm
01:00 PM 39.7°F4.3°C 36.5°F2.5°C 88% 3.0 mph WSW4.8 kmh WSW 12.0 mph19.3 kmh 30.23 in1023.7 mb 0.00 in0.0 mm 0.00 in0.0 mm 0.11 in2.8 mm
01:05 PM 39.7°F4.3°C 36.5°F2.5°C 88% 3.0 mph WSW4.8 kmh WSW 12.0 mph19.3 kmh 30.23 in1023.7 mb 0.00 in0.0 mm 0.00 in0.0 mm 0.11 in2.8 mm
01:10 PM 39.7°F4.3°C 36.5°F2.5°C 88% 3.0 mph WSW4.8 kmh WSW 11.0 mph17.7 kmh 30.23 in1023.7 mb 0.00 in0.0 mm 0.00 in0.0 mm 0.11 in2.8 mm
01:15 PM 39.7°F4.3°C 36.5°F2.5°C 88% 4.0 mph WSW6.4 kmh WSW 11.0 mph17.7 kmh 30.23 in1023.7 mb 0.00 in0.0 mm 0.00 in0.0 mm 0.11 in2.8 mm
01:20 PM 39.7°F4.3°C 36.3°F2.4°C 87% 4.0 mph WSW6.4 kmh WSW 12.0 mph19.3 kmh 30.23 in1023.7 mb 0.00 in0.0 mm 0.00 in0.0 mm 0.11 in2.8 mm
01:25 PM 39.9°F4.4°C 36.3°F2.4°C 87% 4.0 mph WSW6.4 kmh WSW 12.0 mph19.3 kmh 30.23 in1023.7 mb 0.00 in0.0 mm 0.00 in0.0 mm 0.11 in2.8 mm
01:30 PM 39.9°F4.4°C 36.3°F2.4°C 87% 3.0 mph WSW4.8 kmh WSW 11.0 mph17.7 kmh 30.23 in1023.7 mb 0.00 in0.0 mm 0.00 in0.0 mm 0.11 in2.8 mm
01:35 PM 39.9°F4.4°C 36.3°F2.4°C 87% 3.0 mph WSW4.8 kmh WSW 9.0 mph14.5 kmh 30.23 in1023.7 mb 0.00 in0.0 mm 0.00 in0.0 mm 0.11 in2.8 mm
01:40 PM 39.9°F4.4°C 36.3°F2.4°C 87% 3.0 mph WSW4.8 kmh WSW 11.0 mph17.7 kmh 30.23 in1023.7 mb 0.00 in0.0 mm 0.00 in0.0 mm 0.11 in2.8 mm
01:45 PM 39.9°F4.4°C 36.3°F2.4°C 87% 3.0 mph WSW4.8 kmh WSW 11.0 mph17.7 kmh 30.23 in1023.7 mb 0.00 in0.0 mm 0.00 in0.0 mm 0.11 in2.8 mm
01:50 PM 39.7°F4.3°C 36.5°F2.5°C 88% 3.0 mph WSW4.8 kmh WSW 9.0 mph14.5 kmh 30.23 in1023.7 mb 0.00 in0.0 mm 0.00 in0.0 mm 0.11 in2.8 mm
01:55 PM 39.7°F4.3°C 36.5°F2.5°C 88% 3.0 mph WSW4.8 kmh WSW 11.0 mph17.7 kmh 30.23 in1023.7 mb 0.00 in0.0 mm 0.00 in0.0 mm 0.11 in2.8 mm
02:00 PM 39.7°F4.3°C 36.5°F2.5°C 88% 3.0 mph WSW4.8 kmh WSW 11.0 mph17.7 kmh 30.23 in1023.7 mb 0.00 in0.0 mm 0.00 in0.0 mm 0.11 in2.8 mm
02:05 PM 39.7°F4.3°C 36.5°F2.5°C 88% 3.0 mph WSW4.8 kmh WSW 11.0 mph17.7 kmh 30.23 in1023.7 mb 0.00 in0.0 mm 0.00 in0.0 mm 0.11 in2.8 mm
02:10 PM 39.7°F4.3°C 36.5°F2.5°C 88% 4.0 mph W6.4 kmh W 12.0 mph19.3 kmh 30.23 in1023.7 mb 0.00 in0.0 mm 0.00 in0.0 mm 0.11 in2.8 mm
02:15 PM 39.7°F4.3°C 36.5°F2.5°C 88% 3.0 mph W4.8 kmh W 12.0 mph19.3 kmh 30.23 in1023.7 mb 0.00 in0.0 mm 0.00 in0.0 mm 0.11 in2.8 mm
02:20 PM 39.7°F4.3°C 36.5°F2.5°C 88% 2.0 mph WSW3.2 kmh WSW 7.0 mph11.3 kmh 30.22 in1023.4 mb 0.00 in0.0 mm 0.00 in0.0 mm 0.11 in2.8 mm
02:25 PM 39.7°F4.3°C 36.1°F2.3°C 87% 3.0 mph WSW4.8 kmh WSW 14.0 mph22.5 kmh 30.22 in1023.4 mb 0.00 in0.0 mm 0.00 in0.0 mm 0.11 in2.8 mm
02:30 PM 39.7°F4.3°C 36.3°F2.4°C 87% 4.0 mph WSW6.4 kmh WSW 16.0 mph25.7 kmh 30.23 in1023.7 mb 0.00 in0.0 mm 0.00 in0.0 mm 0.11 in2.8 mm
02:35 PM 39.7°F4.3°C 36.3°F2.4°C 87% 4.0 mph WSW6.4 kmh WSW 16.0 mph25.7 kmh 30.23 in1023.7 mb 0.00 in0.0 mm 0.00 in0.0 mm 0.11 in2.8 mm
02:40 PM 39.7°F4.3°C 36.3°F2.4°C 87% 3.0 mph WSW4.8 kmh WSW 12.0 mph19.3 kmh 30.23 in1023.7 mb 0.00 in0.0 mm 0.00 in0.0 mm 0.11 in2.8 mm
02:45 PM 39.7°F4.3°C 36.3°F2.4°C 87% 3.0 mph W4.8 kmh W 10.0 mph16.1 kmh 30.23 in1023.7 mb 0.00 in0.0 mm 0.00 in0.0 mm 0.11 in2.8 mm
02:50 PM 39.7°F4.3°C 36.3°F2.4°C 87% 3.0 mph WSW4.8 kmh WSW 10.0 mph16.1 kmh 30.23 in1023.7 mb 0.00 in0.0 mm 0.00 in0.0 mm 0.11 in2.8 mm
02:55 PM 39.7°F4.3°C 36.1°F2.3°C 87% 3.0 mph WSW4.8 kmh WSW 11.0 mph17.7 kmh 30.23 in1023.7 mb 0.00 in0.0 mm 0.00 in0.0 mm 0.11 in2.8 mm
03:00 PM 39.7°F4.3°C 36.1°F2.3°C 87% 4.0 mph WSW6.4 kmh WSW 12.0 mph19.3 kmh 30.23 in1023.7 mb 0.00 in0.0 mm 0.00 in0.0 mm 0.11 in2.8 mm
03:05 PM 39.6°F4.2°C 36.0°F2.2°C 87% 4.0 mph WSW6.4 kmh WSW 12.0 mph19.3 kmh 30.23 in1023.7 mb 0.00 in0.0 mm 0.00 in0.0 mm 0.11 in2.8 mm
03:10 PM 39.6°F4.2°C 36.3°F2.4°C 88% 3.0 mph W4.8 kmh W 10.0 mph16.1 kmh 30.23 in1023.7 mb 0.00 in0.0 mm 0.00 in0.0 mm 0.11 in2.8 mm
03:15 PM 39.4°F4.1°C 36.1°F2.3°C 88% 2.0 mph W3.2 kmh W 10.0 mph16.1 kmh 30.23 in1023.7 mb 0.00 in0.0 mm 0.00 in0.0 mm 0.11 in2.8 mm
03:20 PM 39.4°F4.1°C 36.1°F2.3°C 88% 2.0 mph WSW3.2 kmh WSW 9.0 mph14.5 kmh 30.23 in1023.7 mb 0.00 in0.0 mm 0.00 in0.0 mm 0.11 in2.8 mm
03:25 PM 39.4°F4.1°C 36.0°F2.2°C 88% 3.0 mph WSW4.8 kmh WSW 9.0 mph14.5 kmh 30.24 in1024.0 mb 0.00 in0.0 mm 0.00 in0.0 mm 0.11 in2.8 mm
03:30 PM 39.4°F4.1°C 36.0°F2.2°C 88% 3.0 mph WSW4.8 kmh WSW 9.0 mph14.5 kmh 30.24 in1024.0 mb 0.00 in0.0 mm 0.00 in0.0 mm 0.11 in2.8 mm
03:35 PM 39.2°F4.0°C 36.3°F2.4°C 89% 3.0 mph WSW4.8 kmh WSW 9.0 mph14.5 kmh 30.24 in1024.0 mb 0.00 in0.0 mm 0.00 in0.0 mm 0.11 in2.8 mm
03:40 PM 39.2°F4.0°C 36.3°F2.4°C 89% 3.0 mph W4.8 kmh W 10.0 mph16.1 kmh 30.24 in1024.0 mb 0.00 in0.0 mm 0.00 in0.0 mm 0.11 in2.8 mm
03:45 PM 39.0°F3.9°C 36.1°F2.3°C 89% 2.0 mph W3.2 kmh W 10.0 mph16.1 kmh 30.24 in1024.0 mb 0.00 in0.0 mm 0.00 in0.0 mm 0.11 in2.8 mm
03:50 PM 38.8°F3.8°C 36.0°F2.2°C 89% 3.0 mph WSW4.8 kmh WSW 9.0 mph14.5 kmh 30.24 in1024.0 mb 0.00 in0.0 mm 0.00 in0.0 mm 0.11 in2.8 mm
03:55 PM 38.8°F3.8°C 36.1°F2.3°C 90% 3.0 mph WSW4.8 kmh WSW 9.0 mph14.5 kmh 30.24 in1024.0 mb 0.00 in0.0 mm 0.00 in0.0 mm 0.11 in2.8 mm
04:00 PM 38.7°F3.7°C 36.0°F2.2°C 90% 3.0 mph WSW4.8 kmh WSW 8.0 mph12.9 kmh 30.24 in1024.0 mb 0.00 in0.0 mm 0.00 in0.0 mm 0.11 in2.8 mm
04:05 PM 38.5°F3.6°C 36.0°F2.2°C 91% 3.0 mph WSW4.8 kmh WSW 8.0 mph12.9 kmh 30.24 in1024.0 mb 0.00 in0.0 mm 0.00 in0.0 mm 0.11 in2.8 mm
04:10 PM 38.3°F3.5°C 36.0°F2.2°C 91% 3.0 mph WSW4.8 kmh WSW 15.0 mph24.1 kmh 30.24 in1024.0 mb 0.01 in0.3 mm 0.12 in3.0 mm 0.12 in3.0 mm
04:15 PM 38.3°F3.5°C 36.1°F2.3°C 92% 3.0 mph WSW4.8 kmh WSW 15.0 mph24.1 kmh 30.24 in1024.0 mb 0.01 in0.3 mm 0.00 in0.0 mm 0.12 in3.0 mm
04:20 PM 38.1°F3.4°C 36.0°F2.2°C 92% 3.0 mph WSW4.8 kmh WSW 10.0 mph16.1 kmh 30.25 in1024.4 mb 0.01 in0.3 mm 0.00 in0.0 mm 0.12 in3.0 mm
04:25 PM 37.9°F3.3°C 36.0°F2.2°C 92% 3.0 mph WSW4.8 kmh WSW 10.0 mph16.1 kmh 30.24 in1024.0 mb 0.01 in0.3 mm 0.00 in0.0 mm 0.12 in3.0 mm
04:30 PM 37.9°F3.3°C 35.8°F2.1°C 92% 3.0 mph W4.8 kmh W 11.0 mph17.7 kmh 30.24 in1024.0 mb 0.02 in0.5 mm 0.12 in3.0 mm 0.13 in3.3 mm
04:35 PM 37.8°F3.2°C 36.0°F2.2°C 93% 3.0 mph WSW4.8 kmh WSW 11.0 mph17.7 kmh 30.24 in1024.0 mb 0.02 in0.5 mm 0.00 in0.0 mm 0.13 in3.3 mm
04:40 PM 37.8°F3.2°C 35.8°F2.1°C 93% 3.0 mph W4.8 kmh W 11.0 mph17.7 kmh 30.25 in1024.4 mb 0.02 in0.5 mm 0.00 in0.0 mm 0.13 in3.3 mm
04:45 PM 37.6°F3.1°C 35.8°F2.1°C 93% 3.0 mph W4.8 kmh W 16.0 mph25.7 kmh 30.25 in1024.4 mb 0.02 in0.5 mm 0.00 in0.0 mm 0.13 in3.3 mm
04:50 PM 37.6°F3.1°C 35.6°F2.0°C 93% 4.0 mph WSW6.4 kmh WSW 16.0 mph25.7 kmh 30.25 in1024.4 mb 0.02 in0.5 mm 0.00 in0.0 mm 0.13 in3.3 mm
04:55 PM 37.6°F3.1°C 36.0°F2.2°C 94% 3.0 mph WSW4.8 kmh WSW 13.0 mph20.9 kmh 30.25 in1024.4 mb 0.02 in0.5 mm 0.00 in0.0 mm 0.13 in3.3 mm
05:00 PM 37.4°F3.0°C 35.8°F2.1°C 94% 2.0 mph WSW3.2 kmh WSW 8.0 mph12.9 kmh 30.25 in1024.4 mb 0.02 in0.5 mm 0.00 in0.0 mm 0.13 in3.3 mm
05:05 PM 37.2°F2.9°C 35.8°F2.1°C 94% 3.0 mph WSW4.8 kmh WSW 8.0 mph12.9 kmh 30.25 in1024.4 mb 0.02 in0.5 mm 0.00 in0.0 mm 0.13 in3.3 mm
05:10 PM 37.2°F2.9°C 35.8°F2.1°C 94% 2.0 mph WSW3.2 kmh WSW 9.0 mph14.5 kmh 30.25 in1024.4 mb 0.02 in0.5 mm 0.00 in0.0 mm 0.14 in3.6 mm
05:15 PM 37.2°F2.9°C 35.8°F2.1°C 94% 2.0 mph WSW3.2 kmh WSW 13.0 mph20.9 kmh 30.24 in1024.0 mb 0.02 in0.5 mm 0.00 in0.0 mm 0.14 in3.6 mm
05:20 PM 37.2°F2.9°C 35.8°F2.1°C 94% 3.0 mph WSW4.8 kmh WSW 13.0 mph20.9 kmh 30.25 in1024.4 mb 0.02 in0.5 mm 0.00 in0.0 mm 0.14 in3.6 mm
05:25 PM 37.2°F2.9°C 36.0°F2.2°C 95% 3.0 mph WSW4.8 kmh WSW 9.0 mph14.5 kmh 30.25 in1024.4 mb 0.02 in0.5 mm 0.00 in0.0 mm 0.14 in3.6 mm
05:30 PM 37.2°F2.9°C 36.0°F2.2°C 95% 3.0 mph WSW4.8 kmh WSW 9.0 mph14.5 kmh 30.25 in1024.4 mb 0.02 in0.5 mm 0.00 in0.0 mm 0.14 in3.6 mm
05:35 PM 37.2°F2.9°C 36.0°F2.2°C 95% 3.0 mph WSW4.8 kmh WSW 8.0 mph12.9 kmh 30.25 in1024.4 mb 0.02 in0.5 mm 0.00 in0.0 mm 0.15 in3.8 mm
05:40 PM 37.2°F2.9°C 36.0°F2.2°C 95% 3.0 mph WSW4.8 kmh WSW 11.0 mph17.7 kmh 30.25 in1024.4 mb 0.02 in0.5 mm 0.00 in0.0 mm 0.15 in3.8 mm
05:45 PM 37.2°F2.9°C 36.0°F2.2°C 95% 3.0 mph WSW4.8 kmh WSW 11.0 mph17.7 kmh 30.25 in1024.4 mb 0.02 in0.5 mm 0.00 in0.0 mm 0.15 in3.8 mm
05:50 PM 37.2°F2.9°C 36.0°F2.2°C 95% 3.0 mph WSW4.8 kmh WSW 9.0 mph14.5 kmh 30.25 in1024.4 mb 0.02 in0.5 mm 0.00 in0.0 mm 0.15 in3.8 mm
05:55 PM 37.2°F2.9°C 36.0°F2.2°C 95% 2.0 mph WSW3.2 kmh WSW 10.0 mph16.1 kmh 30.25 in1024.4 mb 0.02 in0.5 mm 0.00 in0.0 mm 0.15 in3.8 mm
06:00 PM 37.2°F2.9°C 36.0°F2.2°C 95% 3.0 mph WSW4.8 kmh WSW 10.0 mph16.1 kmh 30.25 in1024.4 mb 0.02 in0.5 mm 0.00 in0.0 mm 0.15 in3.8 mm
06:05 PM 37.2°F2.9°C 36.0°F2.2°C 95% 3.0 mph WSW4.8 kmh WSW 10.0 mph16.1 kmh 30.24 in1024.0 mb 0.02 in0.5 mm 0.00 in0.0 mm 0.15 in3.8 mm
06:10 PM 37.2°F2.9°C 36.0°F2.2°C 95% 3.0 mph WSW4.8 kmh WSW 10.0 mph16.1 kmh 30.25 in1024.4 mb 0.01 in0.3 mm 0.00 in0.0 mm 0.15 in3.8 mm
06:15 PM 37.2°F2.9°C 36.0°F2.2°C 95% 2.0 mph WSW3.2 kmh WSW 9.0 mph14.5 kmh 30.25 in1024.4 mb 0.01 in0.3 mm 0.00 in0.0 mm 0.15 in3.8 mm
06:20 PM 37.2°F2.9°C 36.0°F2.2°C 95% 2.0 mph WSW3.2 kmh WSW 12.0 mph19.3 kmh 30.25 in1024.4 mb 0.01 in0.3 mm 0.00 in0.0 mm 0.15 in3.8 mm
06:25 PM 37.2°F2.9°C 36.0°F2.2°C 95% 3.0 mph WSW4.8 kmh WSW 12.0 mph19.3 kmh 30.25 in1024.4 mb 0.01 in0.3 mm 0.00 in0.0 mm 0.15 in3.8 mm
06:30 PM 37.2°F2.9°C 36.0°F2.2°C 95% 3.0 mph WSW4.8 kmh WSW 12.0 mph19.3 kmh 30.25 in1024.4 mb 0.00 in0.0 mm 0.00 in0.0 mm 0.15 in3.8 mm
06:35 PM 37.2°F2.9°C 36.0°F2.2°C 95% 3.0 mph WSW4.8 kmh WSW 12.0 mph19.3 kmh 30.25 in1024.4 mb 0.00 in0.0 mm 0.00 in0.0 mm 0.15 in3.8 mm
06:40 PM 37.2°F2.9°C 36.0°F2.2°C 95% 2.0 mph WSW3.2 kmh WSW 11.0 mph17.7 kmh 30.25 in1024.4 mb 0.00 in0.0 mm 0.00 in0.0 mm 0.15 in3.8 mm
06:45 PM 37.2°F2.9°C 36.0°F2.2°C 95% 2.0 mph WSW3.2 kmh WSW 11.0 mph17.7 kmh 30.25 in1024.4 mb 0.00 in0.0 mm 0.00 in0.0 mm 0.15 in3.8 mm
06:50 PM 37.2°F2.9°C 36.0°F2.2°C 95% 3.0 mph WSW4.8 kmh WSW 8.0 mph12.9 kmh 30.25 in1024.4 mb 0.00 in0.0 mm 0.00 in0.0 mm 0.15 in3.8 mm
06:55 PM 37.4°F3.0°C 36.1°F2.3°C 95% 3.0 mph WSW4.8 kmh WSW 9.0 mph14.5 kmh 30.25 in1024.4 mb 0.00 in0.0 mm 0.00 in0.0 mm 0.15 in3.8 mm
07:00 PM 37.4°F3.0°C 36.1°F2.3°C 95% 3.0 mph WSW4.8 kmh WSW 9.0 mph14.5 kmh 30.25 in1024.4 mb 0.00 in0.0 mm 0.00 in0.0 mm 0.15 in3.8 mm
07:05 PM 37.4°F3.0°C 35.8°F2.1°C 94% 2.0 mph WSW3.2 kmh WSW 12.0 mph19.3 kmh 30.25 in1024.4 mb 0.00 in0.0 mm 0.00 in0.0 mm 0.15 in3.8 mm
07:10 PM 37.6°F3.1°C 36.0°F2.2°C 94% 2.0 mph WSW3.2 kmh WSW 12.0 mph19.3 kmh 30.25 in1024.4 mb 0.00 in0.0 mm 0.00 in0.0 mm 0.15 in3.8 mm
07:15 PM 37.6°F3.1°C 36.0°F2.2°C 94% 2.0 mph WSW3.2 kmh WSW 11.0 mph17.7 kmh 30.24 in1024.0 mb 0.00 in0.0 mm 0.00 in0.0 mm 0.15 in3.8 mm
07:20 PM 37.6°F3.1°C 36.0°F2.2°C 94% 2.0 mph WSW3.2 kmh WSW 7.0 mph11.3 kmh 30.25 in1024.4 mb 0.00 in0.0 mm 0.00 in0.0 mm 0.15 in3.8 mm
07:25 PM 37.6°F3.1°C 36.0°F2.2°C 94% 3.0 mph WSW4.8 kmh WSW 9.0 mph14.5 kmh 30.25 in1024.4 mb 0.00 in0.0 mm 0.00 in0.0 mm 0.15 in3.8 mm
07:30 PM 37.6°F3.1°C 36.0°F2.2°C 94% 3.0 mph WSW4.8 kmh WSW 9.0 mph14.5 kmh 30.25 in1024.4 mb 0.00 in0.0 mm 0.00 in0.0 mm 0.15 in3.8 mm
07:35 PM 37.6°F3.1°C 35.8°F2.1°C 93% 3.0 mph WSW4.8 kmh WSW 9.0 mph14.5 kmh 30.25 in1024.4 mb 0.00 in0.0 mm 0.00 in0.0 mm 0.15 in3.8 mm
07:40 PM 37.6°F3.1°C 35.8°F2.1°C 93% 3.0 mph WSW4.8 kmh WSW 11.0 mph17.7 kmh 30.24 in1024.0 mb 0.00 in0.0 mm 0.00 in0.0 mm 0.15 in3.8 mm
07:45 PM 37.6°F3.1°C 35.8°F2.1°C 93% 3.0 mph WSW4.8 kmh WSW 11.0 mph17.7 kmh 30.24 in1024.0 mb 0.00 in0.0 mm 0.00 in0.0 mm 0.15 in3.8 mm
07:50 PM 37.6°F3.1°C 35.8°F2.1°C 93% 3.0 mph WSW4.8 kmh WSW 9.0 mph14.5 kmh 30.25 in1024.4 mb 0.00 in0.0 mm 0.00 in0.0 mm 0.15 in3.8 mm
07:55 PM 37.6°F3.1°C 35.8°F2.1°C 93% 3.0 mph WSW4.8 kmh WSW 9.0 mph14.5 kmh 30.25 in1024.4 mb 0.00 in0.0 mm 0.00 in0.0 mm 0.15 in3.8 mm
08:00 PM 37.8°F3.2°C 35.8°F2.1°C 93% 3.0 mph WSW4.8 kmh WSW 9.0 mph14.5 kmh 30.25 in1024.4 mb 0.00 in0.0 mm 0.00 in0.0 mm 0.15 in3.8 mm
08:05 PM 37.6°F3.1°C 35.8°F2.1°C 93% 4.0 mph WSW6.4 kmh WSW 10.0 mph16.1 kmh 30.25 in1024.4 mb 0.00 in0.0 mm 0.00 in0.0 mm 0.15 in3.8 mm
08:10 PM 37.6°F3.1°C 35.8°F2.1°C 93% 3.0 mph WSW4.8 kmh WSW 10.0 mph16.1 kmh 30.24 in1024.0 mb 0.00 in0.0 mm 0.00 in0.0 mm 0.15 in3.8 mm
08:15 PM 37.6°F3.1°C 35.8°F2.1°C 93% 2.0 mph WSW3.2 kmh WSW 10.0 mph16.1 kmh 30.24 in1024.0 mb 0.00 in0.0 mm 0.00 in0.0 mm 0.15 in3.8 mm
08:20 PM 37.6°F3.1°C 35.8°F2.1°C 93% 3.0 mph WSW4.8 kmh WSW 8.0 mph12.9 kmh 30.24 in1024.0 mb 0.00 in0.0 mm 0.00 in0.0 mm 0.15 in3.8 mm
08:25 PM 37.6°F3.1°C 35.8°F2.1°C 93% 2.0 mph WSW3.2 kmh WSW 7.0 mph11.3 kmh 30.24 in1024.0 mb 0.01 in0.3 mm 0.12 in3.0 mm 0.16 in4.1 mm
08:30 PM 37.6°F3.1°C 35.8°F2.1°C 93% 2.0 mph WSW3.2 kmh WSW 9.0 mph14.5 kmh 30.24 in1024.0 mb 0.01 in0.3 mm 0.00 in0.0 mm 0.16 in4.1 mm
08:35 PM 37.6°F3.1°C 35.6°F2.0°C 93% 3.0 mph WSW4.8 kmh WSW 12.0 mph19.3 kmh 30.24 in1024.0 mb 0.01 in0.3 mm 0.00 in0.0 mm 0.16 in4.1 mm
08:40 PM 37.6°F3.1°C 35.4°F1.9°C 92% 3.0 mph WSW4.8 kmh WSW 12.0 mph19.3 kmh 30.24 in1024.0 mb 0.01 in0.3 mm 0.00 in0.0 mm 0.16 in4.1 mm
08:45 PM 37.6°F3.1°C 35.4°F1.9°C 92% 3.0 mph WSW4.8 kmh WSW 12.0 mph19.3 kmh 30.24 in1024.0 mb 0.01 in0.3 mm 0.00 in0.0 mm 0.16 in4.1 mm
08:50 PM 37.6°F3.1°C 35.4°F1.9°C 92% 3.0 mph WSW4.8 kmh WSW 10.0 mph16.1 kmh 30.24 in1024.0 mb 0.01 in0.3 mm 0.00 in0.0 mm 0.16 in4.1 mm
08:55 PM 37.6°F3.1°C 35.4°F1.9°C 92% 2.0 mph WSW3.2 kmh WSW 9.0 mph14.5 kmh 30.24 in1024.0 mb 0.01 in0.3 mm 0.00 in0.0 mm 0.16 in4.1 mm
09:00 PM 37.6°F3.1°C 35.4°F1.9°C 92% 2.0 mph WSW3.2 kmh WSW 9.0 mph14.5 kmh 30.24 in1024.0 mb 0.01 in0.3 mm 0.00 in0.0 mm 0.16 in4.1 mm
09:05 PM 37.6°F3.1°C 35.4°F1.9°C 92% 2.0 mph WSW3.2 kmh WSW 7.0 mph11.3 kmh 30.24 in1024.0 mb 0.01 in0.3 mm 0.00 in0.0 mm 0.16 in4.1 mm
09:10 PM 37.4°F3.0°C 35.6°F2.0°C 93% 2.0 mph WSW3.2 kmh WSW 9.0 mph14.5 kmh 30.24 in1024.0 mb 0.02 in0.5 mm 0.12 in3.0 mm 0.17 in4.3 mm
09:15 PM 37.4°F3.0°C 35.6°F2.0°C 93% 2.0 mph WSW3.2 kmh WSW 9.0 mph14.5 kmh 30.24 in1024.0 mb 0.02 in0.5 mm 0.00 in0.0 mm 0.17 in4.3 mm
09:20 PM 37.2°F2.9°C 35.4°F1.9°C 93% 3.0 mph WSW4.8 kmh WSW 9.0 mph14.5 kmh 30.24 in1024.0 mb 0.01 in0.3 mm 0.00 in0.0 mm 0.17 in4.3 mm
09:25 PM 37.2°F2.9°C 35.4°F1.9°C 93% 3.0 mph WSW4.8 kmh WSW 9.0 mph14.5 kmh 30.24 in1024.0 mb 0.01 in0.3 mm 0.00 in0.0 mm 0.17 in4.3 mm
09:30 PM 37.4°F3.0°C 35.6°F2.0°C 93% 3.0 mph WSW4.8 kmh WSW 9.0 mph14.5 kmh 30.24 in1024.0 mb 0.01 in0.3 mm 0.00 in0.0 mm 0.17 in4.3 mm
09:35 PM 37.4°F3.0°C 35.6°F2.0°C 93% 2.0 mph WSW3.2 kmh WSW 9.0 mph14.5 kmh 30.24 in1024.0 mb 0.01 in0.3 mm 0.00 in0.0 mm 0.17 in4.3 mm
09:40 PM 37.4°F3.0°C 35.6°F2.0°C 93% 3.0 mph WSW4.8 kmh WSW 8.0 mph12.9 kmh 30.24 in1024.0 mb 0.01 in0.3 mm 0.00 in0.0 mm 0.17 in4.3 mm
09:45 PM 37.6°F3.1°C 35.6°F2.0°C 93% 3.0 mph WSW4.8 kmh WSW 9.0 mph14.5 kmh 30.24 in1024.0 mb 0.01 in0.3 mm 0.00 in0.0 mm 0.17 in4.3 mm
09:50 PM 37.6°F3.1°C 35.4°F1.9°C 92% 4.0 mph WSW6.4 kmh WSW 10.0 mph16.1 kmh 30.25 in1024.4 mb 0.01 in0.3 mm 0.00 in0.0 mm 0.17 in4.3 mm
09:55 PM 37.6°F3.1°C 35.4°F1.9°C 92% 4.0 mph WSW6.4 kmh WSW 10.0 mph16.1 kmh 30.25 in1024.4 mb 0.01 in0.3 mm 0.00 in0.0 mm 0.17 in4.3 mm
10:00 PM 37.6°F3.1°C 35.4°F1.9°C 92% 3.0 mph WSW4.8 kmh WSW 8.0 mph12.9 kmh 30.24 in1024.0 mb 0.01 in0.3 mm 0.00 in0.0 mm 0.17 in4.3 mm
10:05 PM 37.6°F3.1°C 35.4°F1.9°C 92% 3.0 mph SW4.8 kmh SW 12.0 mph19.3 kmh 30.24 in1024.0 mb 0.01 in0.3 mm 0.00 in0.0 mm 0.17 in4.3 mm
10:10 PM 37.8°F3.2°C 35.6°F2.0°C 92% 4.0 mph SW6.4 kmh SW 13.0 mph20.9 kmh 30.24 in1024.0 mb 0.00 in0.0 mm 0.00 in0.0 mm 0.17 in4.3 mm
10:15 PM 37.8°F3.2°C 35.4°F1.9°C 91% 4.0 mph WSW6.4 kmh WSW 13.0 mph20.9 kmh 30.24 in1024.0 mb 0.00 in0.0 mm 0.00 in0.0 mm 0.17 in4.3 mm
10:20 PM 37.9°F3.3°C 35.4°F1.9°C 91% 4.0 mph WSW6.4 kmh WSW 12.0 mph19.3 kmh 30.24 in1024.0 mb 0.00 in0.0 mm 0.00 in0.0 mm 0.17 in4.3 mm
10:25 PM 37.8°F3.2°C 35.4°F1.9°C 91% 4.0 mph SW6.4 kmh SW 9.0 mph14.5 kmh 30.24 in1024.0 mb 0.00 in0.0 mm 0.00 in0.0 mm 0.17 in4.3 mm
10:30 PM 37.9°F3.3°C 35.2°F1.8°C 90% 4.0 mph SW6.4 kmh SW 10.0 mph16.1 kmh 30.25 in1024.4 mb 0.00 in0.0 mm 0.00 in0.0 mm 0.17 in4.3 mm
10:35 PM 37.9°F3.3°C 35.2°F1.8°C 90% 3.0 mph WSW4.8 kmh WSW 11.0 mph17.7 kmh 30.25 in1024.4 mb 0.00 in0.0 mm 0.00 in0.0 mm 0.17 in4.3 mm
10:40 PM 38.1°F3.4°C 35.4°F1.9°C 90% 3.0 mph WSW4.8 kmh WSW 11.0 mph17.7 kmh 30.25 in1024.4 mb 0.00 in0.0 mm 0.00 in0.0 mm 0.17 in4.3 mm
10:45 PM 38.1°F3.4°C 35.6°F2.0°C 90% 3.0 mph WSW4.8 kmh WSW 11.0 mph17.7 kmh 30.25 in1024.4 mb 0.00 in0.0 mm 0.00 in0.0 mm 0.17 in4.3 mm
10:50 PM 38.1°F3.4°C 35.2°F1.8°C 89% 3.0 mph WSW4.8 kmh WSW 11.0 mph17.7 kmh 30.25 in1024.4 mb 0.00 in0.0 mm 0.00 in0.0 mm 0.17 in4.3 mm
10:55 PM 38.3°F3.5°C 35.4°F1.9°C 89% 3.0 mph WSW4.8 kmh WSW 10.0 mph16.1 kmh 30.25 in1024.4 mb 0.00 in0.0 mm 0.00 in0.0 mm 0.17 in4.3 mm
11:00 PM 38.3°F3.5°C 35.4°F1.9°C 89% 3.0 mph WSW4.8 kmh WSW 10.0 mph16.1 kmh 30.25 in1024.4 mb 0.00 in0.0 mm 0.00 in0.0 mm 0.17 in4.3 mm
11:05 PM 38.5°F3.6°C 35.4°F1.9°C 89% 3.0 mph WSW4.8 kmh WSW 10.0 mph16.1 kmh 30.25 in1024.4 mb 0.00 in0.0 mm 0.00 in0.0 mm 0.17 in4.3 mm
11:10 PM 38.5°F3.6°C 35.4°F1.9°C 89% 2.0 mph WSW3.2 kmh WSW 7.0 mph11.3 kmh 30.25 in1024.4 mb 0.00 in0.0 mm 0.00 in0.0 mm 0.17 in4.3 mm
11:15 PM 38.5°F3.6°C 35.6°F2.0°C 89% 2.0 mph WSW3.2 kmh WSW 7.0 mph11.3 kmh 30.25 in1024.4 mb 0.00 in0.0 mm 0.00 in0.0 mm 0.17 in4.3 mm
11:20 PM 38.5°F3.6°C 35.6°F2.0°C 89% 2.0 mph WSW3.2 kmh WSW 7.0 mph11.3 kmh 30.25 in1024.4 mb 0.00 in0.0 mm 0.00 in0.0 mm 0.17 in4.3 mm
11:25 PM 38.7°F3.7°C 35.4°F1.9°C 88% 2.0 mph WSW3.2 kmh WSW 9.0 mph14.5 kmh 30.25 in1024.4 mb 0.00 in0.0 mm 0.00 in0.0 mm 0.17 in4.3 mm
11:30 PM 38.7°F3.7°C 35.4°F1.9°C 88% 2.0 mph WSW3.2 kmh WSW 9.0 mph14.5 kmh 30.24 in1024.0 mb 0.00 in0.0 mm 0.00 in0.0 mm 0.17 in4.3 mm
11:35 PM 38.8°F3.8°C 35.6°F2.0°C 88% 2.0 mph WSW3.2 kmh WSW 8.0 mph12.9 kmh 30.25 in1024.4 mb 0.00 in0.0 mm 0.00 in0.0 mm 0.17 in4.3 mm
11:40 PM 38.7°F3.7°C 35.4°F1.9°C 88% 2.0 mph WSW3.2 kmh WSW 8.0 mph12.9 kmh 30.25 in1024.4 mb 0.00 in0.0 mm 0.00 in0.0 mm 0.17 in4.3 mm
11:45 PM 38.8°F3.8°C 35.6°F2.0°C 88% 2.0 mph WSW3.2 kmh WSW 8.0 mph12.9 kmh 30.25 in1024.4 mb 0.00 in0.0 mm 0.00 in0.0 mm 0.17 in4.3 mm
11:50 PM 38.8°F3.8°C 35.6°F2.0°C 88% 3.0 mph WSW4.8 kmh WSW 7.0 mph11.3 kmh 30.24 in1024.0 mb 0.00 in0.0 mm 0.00 in0.0 mm 0.17 in4.3 mm
11:55 PM 38.8°F3.8°C 35.6°F2.0°C 88% 3.0 mph WSW4.8 kmh WSW 10.0 mph16.1 kmh 30.24 in1024.0 mb 0.00 in0.0 mm 0.00 in0.0 mm 0.17 in4.3 mm